Time;durP1;ratioP1;P1;durP2;ratioP2;P2;SDS_P1;SDS_P2;PMS_P1;PMS_P2;Temp;Humidity;BMP_temperature;BMP_pressure;BME280_temperature;BME280_humidity;BME280_pressure;Samples;Min_cycle;Max_cycle;Signal;HPM_P1;HPM_P2
2023/07/18 00:00:36;;;;;;;2.25;1.92;;;17.80;96.40;;;;;;5051780;28;20609;-61
2023/07/18 00:03:05;;;;;;;2.40;2.20;;;17.80;96.60;;;;;;5048600;28;20576;-61
2023/07/18 00:05:31;;;;;;;2.00;1.80;;;18.00;97.00;;;;;;5048219;28;20240;-61
2023/07/18 00:07:57;;;;;;;5.50;2.00;;;17.70;96.90;;;;;;5053360;28;20205;-60
2023/07/18 00:10:23;;;;;;;3.27;1.90;;;17.60;97.10;;;;;;5050588;28;20559;-60
2023/07/18 00:12:49;;;;;;;2.57;2.37;;;17.60;97.20;;;;;;5052671;28;20925;-60
2023/07/18 00:15:16;;;;;;;2.55;1.83;;;17.60;97.40;;;;;;5055407;28;20800;-60
2023/07/18 00:17:42;;;;;;;4.15;2.50;;;17.50;97.40;;;;;;5052750;28;20205;-60
2023/07/18 00:20:12;;;;;;;3.35;1.98;;;17.50;97.60;;;;;;5047795;28;20193;-60
2023/07/18 00:22:40;;;;;;;4.88;2.28;;;17.50;97.60;;;;;;5044498;28;20564;-60
2023/07/18 00:25:13;;;;;;;5.60;2.10;;;17.40;97.80;;;;;;5048045;28;20209;-60
2023/07/18 00:27:45;;;;;;;3.10;2.20;;;17.40;98.20;;;;;;5047759;28;20212;-60
2023/07/18 00:30:14;;;;;;;3.58;1.90;;;17.30;98.40;;;;;;5053022;28;20201;-60
2023/07/18 00:32:42;;;;;;;2.50;2.00;;;17.30;98.60;;;;;;5051553;28;20338;-60
2023/07/18 00:35:08;;;;;;;3.80;1.90;;;17.50;99.40;;;;;;5049078;28;20617;-60
2023/07/18 00:37:34;;;;;;;2.88;1.90;;;17.50;99.00;;;;;;5046028;28;20336;-60
2023/07/18 00:40:00;;;;;;;2.03;1.80;;;17.40;98.60;;;;;;5035426;28;20657;-60
2023/07/18 00:42:26;;;;;;;3.57;2.10;;;17.30;98.70;;;;;;5030280;28;20702;-60
2023/07/18 00:44:51;;;;;;;2.60;2.00;;;17.50;99.10;;;;;;5048588;28;20474;-61
2023/07/18 00:47:22;;;;;;;3.03;1.97;;;17.10;99.20;;;;;;5052028;28;20655;-60
2023/07/18 00:49:48;;;;;;;3.08;2.08;;;17.20;99.60;;;;;;5033500;28;20232;-60
2023/07/18 00:52:15;;;;;;;2.70;2.10;;;17.00;99.70;;;;;;5049703;28;21442;-60
2023/07/18 00:54:42;;;;;;;5.43;2.22;;;17.20;99.90;;;;;;5052315;28;20280;-60
2023/07/18 00:57:08;;;;;;;2.33;1.83;;;16.80;99.90;;;;;;5048563;28;20257;-60
2023/07/18 00:59:35;;;;;;;3.40;2.20;;;17.10;99.90;;;;;;5037276;28;20604;-60
2023/07/18 01:02:02;;;;;;;3.35;2.03;;;16.90;99.90;;;;;;5043122;28;20530;-60
2023/07/18 01:04:28;;;;;;;2.28;1.70;;;16.80;99.90;;;;;;5036201;28;20533;-60
2023/07/18 01:06:54;;;;;;;4.63;2.10;;;16.80;99.90;;;;;;5043514;28;20666;-60
2023/07/18 01:09:20;;;;;;;1.92;1.83;;;16.90;99.90;;;;;;5053540;28;20188;-60
2023/07/18 01:11:45;;;;;;;3.17;1.90;;;16.70;99.90;;;;;;5052720;28;20669;-61
2023/07/18 01:14:11;;;;;;;2.13;1.90;;;16.90;99.90;;;;;;5045199;28;20201;-60
2023/07/18 01:16:37;;;;;;;2.63;1.80;;;16.70;99.90;;;;;;5050206;28;20186;-61
2023/07/18 01:19:02;;;;;;;2.80;1.70;;;16.80;99.90;;;;;;5048091;28;20509;-60
2023/07/18 01:21:28;;;;;;;2.53;2.20;;;16.50;99.90;;;;;;5046273;28;20530;-61
2023/07/18 01:23:54;;;;;;;3.17;2.30;;;16.60;99.90;;;;;;5049510;28;20201;-60
2023/07/18 01:26:20;;;;;;;2.27;1.40;;;16.90;99.90;;;;;;5051600;28;20202;-60
2023/07/18 01:28:45;;;;;;;3.37;1.90;;;16.50;99.90;;;;;;5045085;28;20189;-60
2023/07/18 01:31:11;;;;;;;2.70;1.90;;;16.60;99.90;;;;;;5050617;28;20527;-60
2023/07/18 01:33:36;;;;;;;2.23;1.80;;;16.80;99.90;;;;;;5050850;28;20244;-60
2023/07/18 01:36:02;;;;;;;1.67;1.53;;;16.70;99.90;;;;;;5050545;28;20217;-60
2023/07/18 01:38:31;;;;;;;3.40;1.67;;;17.00;99.90;;;;;;5047879;28;20278;-60
2023/07/18 01:41:00;;;;;;;3.08;1.70;;;16.60;99.90;;;;;;5042638;28;20910;-60
2023/07/18 01:43:26;;;;;;;3.35;1.77;;;16.70;99.90;;;;;;5044937;28;20513;-61
2023/07/18 01:45:56;;;;;;;3.77;1.60;;;16.60;99.90;;;;;;5047451;28;20184;-60
2023/07/18 01:48:22;;;;;;;2.40;1.80;;;16.60;99.90;;;;;;5047460;28;20956;-60
2023/07/18 01:50:48;;;;;;;5.37;2.40;;;16.50;99.90;;;;;;5046848;28;20196;-60
2023/07/18 01:53:13;;;;;;;1.67;1.50;;;16.70;99.90;;;;;;5047830;28;20740;-60
2023/07/18 01:55:39;;;;;;;3.40;2.10;;;16.40;99.90;;;;;;5047243;28;20186;-60
2023/07/18 01:58:05;;;;;;;4.20;1.77;;;16.40;99.90;;;;;;5045416;28;21518;-60
2023/07/18 02:00:31;;;;;;;1.97;1.73;;;16.40;99.90;;;;;;5046480;28;20439;-61
2023/07/18 02:02:57;;;;;;;3.13;1.70;;;16.40;99.90;;;;;;5045980;28;20194;-61
2023/07/18 02:05:24;;;;;;;5.60;2.20;;;16.30;99.90;;;;;;5033834;28;20470;-60
2023/07/18 02:07:51;;;;;;;2.00;1.80;;;16.50;99.90;;;;;;5047731;28;20193;-61
2023/07/18 02:10:21;;;;;;;6.18;2.58;;;16.20;99.90;;;;;;5049994;28;20181;-60
2023/07/18 02:12:47;;;;;;;2.70;1.70;;;16.20;99.90;;;;;;5045515;28;20178;-60
2023/07/18 02:15:13;;;;;;;5.15;1.75;;;16.20;99.90;;;;;;5050874;28;20197;-60
2023/07/18 02:17:39;;;;;;;2.20;1.77;;;16.20;99.90;;;;;;5047791;28;20251;-60
2023/07/18 02:20:07;;;;;;;4.32;1.70;;;16.30;99.90;;;;;;5046036;28;20197;-61
2023/07/18 02:22:36;;;;;;;4.70;1.80;;;16.40;99.90;;;;;;5047264;28;20192;-61
2023/07/18 02:25:02;;;;;;;1.70;1.60;;;16.30;99.90;;;;;;5048980;28;20609;-61
2023/07/18 02:27:28;;;;;;;2.33;2.00;;;16.30;99.90;;;;;;5047026;28;20239;-60
2023/07/18 02:29:53;;;;;;;2.00;1.43;;;16.40;99.90;;;;;;5049362;28;20654;-60
2023/07/18 02:32:20;;;;;;;3.07;2.10;;;16.20;99.90;;;;;;5042905;28;20212;-61
2023/07/18 02:34:45;;;;;;;2.13;1.92;;;16.30;99.90;;;;;;5046682;28;20200;-60
2023/07/18 02:37:11;;;;;;;3.00;2.17;;;16.40;99.90;;;;;;5045421;28;20189;-60
2023/07/18 02:39:38;;;;;;;3.17;1.90;;;16.30;99.90;;;;;;5046251;28;20558;-60
2023/07/18 02:42:08;;;;;;;2.55;1.90;;;16.20;99.90;;;;;;5047865;28;20190;-60
2023/07/18 02:44:34;;;;;;;3.22;1.95;;;16.10;99.90;;;;;;5049069;28;20247;-61
2023/07/18 02:46:59;;;;;;;1.80;1.70;;;16.20;99.90;;;;;;5048419;28;20182;-60
2023/07/18 02:49:25;;;;;;;4.40;2.00;;;16.00;99.90;;;;;;5047121;28;20436;-61
2023/07/18 02:51:50;;;;;;;2.20;2.00;;;15.80;99.90;;;;;;5048259;28;20192;-60
2023/07/18 02:54:17;;;;;;;4.30;2.00;;;16.00;99.90;;;;;;5047867;28;20275;-60
2023/07/18 02:56:43;;;;;;;2.47;1.60;;;16.00;99.90;;;;;;5047028;28;20794;-61
2023/07/18 02:59:08;;;;;;;2.20;2.00;;;15.60;99.90;;;;;;5045858;28;20209;-60
2023/07/18 03:01:34;;;;;;;3.27;1.87;;;15.70;99.90;;;;;;5046666;28;20201;-60
2023/07/18 03:04:00;;;;;;;2.00;1.80;;;15.80;99.90;;;;;;5047665;28;20205;-61
2023/07/18 03:06:26;;;;;;;3.38;2.25;;;15.60;99.90;;;;;;5051014;28;20328;-60
2023/07/18 03:08:51;;;;;;;3.80;2.57;;;15.50;99.90;;;;;;5042836;28;20185;-61
2023/07/18 03:11:18;;;;;;;2.40;1.80;;;15.50;99.90;;;;;;5046934;28;20182;-60
2023/07/18 03:13:44;;;;;;;2.90;2.53;;;15.50;99.90;;;;;;5045122;28;20198;-60
2023/07/18 03:16:10;;;;;;;2.50;1.60;;;15.50;99.90;;;;;;5047359;28;20188;-60
2023/07/18 03:18:36;;;;;;;2.10;1.90;;;15.30;99.90;;;;;;5038030;28;20686;-61
2023/07/18 03:21:02;;;;;;;2.13;1.93;;;15.40;99.90;;;;;;5042875;28;20189;-60
2023/07/18 03:23:27;;;;;;;2.17;1.60;;;15.60;99.90;;;;;;5045015;28;20250;-60
2023/07/18 03:25:53;;;;;;;3.27;2.60;;;15.30;99.90;;;;;;5048242;28;20452;-60
2023/07/18 03:28:19;;;;;;;2.13;1.80;;;15.50;99.90;;;;;;5045735;28;20705;-71
2023/07/18 03:30:45;;;;;;;2.17;1.98;;;15.50;99.90;;;;;;5057720;28;20181;-74
2023/07/18 03:33:11;;;;;;;2.47;2.03;;;15.50;99.90;;;;;;5053460;28;20576;-73
2023/07/18 03:35:37;;;;;;;2.90;2.35;;;15.50;99.90;;;;;;5030633;28;20528;-74
2023/07/18 03:38:03;;;;;;;4.43;2.10;;;15.40;99.90;;;;;;5043514;28;20211;-72
2023/07/18 03:40:28;;;;;;;3.17;1.97;;;15.50;99.90;;;;;;5047436;28;21025;-73
2023/07/18 03:42:54;;;;;;;3.83;2.00;;;15.80;99.90;;;;;;5051037;28;20189;-73
2023/07/18 03:45:20;;;;;;;2.03;1.90;;;15.60;99.90;;;;;;5036474;28;20231;-73
2023/07/18 03:47:46;;;;;;;4.47;2.10;;;15.50;99.90;;;;;;5056383;28;20255;-72
2023/07/18 03:50:13;;;;;;;3.20;2.10;;;15.50;99.90;;;;;;5045430;28;20194;-72
2023/07/18 03:52:39;;;;;;;4.78;1.90;;;15.60;99.90;;;;;;5038663;28;20207;-72
2023/07/18 03:55:06;;;;;;;2.38;2.03;;;15.60;99.90;;;;;;5053992;28;20209;-72
2023/07/18 03:57:32;;;;;;;2.20;2.00;;;15.70;99.90;;;;;;5041377;28;20622;-74
2023/07/18 03:59:58;;;;;;;2.97;2.20;;;15.50;99.90;;;;;;5051734;28;20277;-75
2023/07/18 04:02:24;;;;;;;2.30;2.00;;;15.60;99.90;;;;;;5057782;28;20261;-72
2023/07/18 04:04:50;;;;;;;2.55;1.95;;;15.60;99.90;;;;;;5050962;28;20201;-73
2023/07/18 04:07:16;;;;;;;3.30;1.80;;;15.60;99.90;;;;;;5047577;28;20182;-73
2023/07/18 04:09:41;;;;;;;3.37;2.20;;;15.70;99.90;;;;;;5035488;28;20439;-73
2023/07/18 04:12:07;;;;;;;3.00;2.07;;;15.70;99.90;;;;;;5058036;28;20200;-74
2023/07/18 04:14:35;;;;;;;3.70;2.07;;;15.50;99.90;;;;;;5052336;28;20225;-71
2023/07/18 04:17:01;;;;;;;2.70;2.30;;;15.60;99.90;;;;;;5055037;28;20650;-73
2023/07/18 04:19:27;;;;;;;2.95;1.90;;;15.70;99.90;;;;;;5046756;28;20275;-73
2023/07/18 04:21:53;;;;;;;2.90;2.07;;;15.80;99.90;;;;;;5031238;28;20182;-74
2023/07/18 04:24:20;;;;;;;3.03;1.93;;;15.60;99.90;;;;;;5031604;28;20202;-74
2023/07/18 04:26:47;;;;;;;3.20;1.80;;;15.80;99.90;;;;;;5052583;28;20463;-74
2023/07/18 04:29:13;;;;;;;2.75;2.35;;;15.70;99.90;;;;;;5039858;28;20201;-74
2023/07/18 04:31:38;;;;;;;2.53;2.33;;;15.70;99.90;;;;;;5034743;28;20185;-70
2023/07/18 04:34:04;;;;;;;3.17;1.80;;;15.90;99.90;;;;;;5041819;28;20292;-71
2023/07/18 04:36:29;;;;;;;5.93;2.80;;;15.80;99.90;;;;;;5041747;28;20783;-71
2023/07/18 04:38:55;;;;;;;2.50;1.80;;;16.00;99.90;;;;;;5040364;28;20300;-72
2023/07/18 04:41:20;;;;;;;2.13;1.67;;;16.00;99.90;;;;;;5049007;28;20207;-72
2023/07/18 04:43:46;;;;;;;2.63;1.90;;;16.10;99.90;;;;;;5048677;28;20252;-72
2023/07/18 04:46:12;;;;;;;2.73;2.20;;;16.10;99.90;;;;;;5025182;28;20232;-73
2023/07/18 04:48:38;;;;;;;4.37;2.20;;;16.20;99.90;;;;;;5029101;28;20347;-71
2023/07/18 04:51:03;;;;;;;3.95;2.78;;;16.20;99.90;;;;;;5028504;28;20232;-72
2023/07/18 04:53:31;;;;;;;2.90;2.40;;;16.10;99.90;;;;;;5038413;28;20204;-72
2023/07/18 04:55:57;;;;;;;5.07;2.25;;;16.30;99.90;;;;;;5043649;28;20197;-72
2023/07/18 04:58:48;;;;;;;4.32;2.30;;;16.20;99.90;;;;;;5047641;28;20204;-71
2023/07/18 05:01:14;;;;;;;2.90;2.10;;;16.20;99.90;;;;;;5033947;28;20635;-72
2023/07/18 05:03:41;;;;;;;3.65;2.20;;;16.30;99.90;;;;;;5030093;28;20721;-72
2023/07/18 05:06:06;;;;;;;4.47;2.00;;;16.30;99.90;;;;;;5031203;28;20227;-72
2023/07/18 05:08:32;;;;;;;2.10;1.90;;;16.30;99.90;;;;;;5051898;28;20181;-72
2023/07/18 05:11:03;;;;;;;6.97;2.30;;;16.60;99.90;;;;;;5025852;28;20252;-72
2023/07/18 05:13:29;;;;;;;4.43;2.55;;;16.80;99.90;;;;;;5041975;28;20251;-74
2023/07/18 05:15:59;;;;;;;2.10;1.90;;;16.80;99.90;;;;;;5048588;28;20822;-73
2023/07/18 05:18:24;;;;;;;5.32;2.40;;;16.80;99.90;;;;;;5053663;28;20219;-72
2023/07/18 05:20:56;;;;;;;3.90;2.23;;;16.90;99.90;;;;;;5048130;28;20265;-72
2023/07/18 05:23:22;;;;;;;4.93;2.65;;;17.10;99.90;;;;;;5028533;28;21018;-73
2023/07/18 05:25:48;;;;;;;4.37;2.40;;;17.20;99.90;;;;;;5051997;28;20527;-72
2023/07/18 05:28:14;;;;;;;7.43;3.17;;;17.40;99.90;;;;;;5024076;28;20196;-73
2023/07/18 05:30:39;;;;;;;2.30;2.10;;;17.50;99.90;;;;;;5047988;28;20174;-72
2023/07/18 05:33:05;;;;;;;7.50;2.43;;;17.60;99.90;;;;;;5049903;28;20446;-73
2023/07/18 05:35:31;;;;;;;3.23;2.80;;;17.60;99.90;;;;;;5052775;28;20189;-73
2023/07/18 05:37:56;;;;;;;3.93;2.87;;;17.60;99.90;;;;;;5044538;28;20210;-72
2023/07/18 05:40:22;;;;;;;3.00;2.70;;;17.70;99.90;;;;;;5046448;28;20181;-73
2023/07/18 05:42:48;;;;;;;4.93;2.87;;;17.80;99.80;;;;;;5038153;28;20182;-72
2023/07/18 05:45:14;;;;;;;2.87;2.57;;;18.00;99.90;;;;;;5050320;28;20202;-74
2023/07/18 05:47:40;;;;;;;3.80;2.50;;;18.20;99.10;;;;;;5028563;28;20173;-73
2023/07/18 05:50:07;;;;;;;3.60;2.60;;;18.20;98.70;;;;;;5051930;28;20197;-75
2023/07/18 05:52:32;;;;;;;3.28;2.25;;;18.60;98.60;;;;;;5046926;28;20638;-73
2023/07/18 05:54:58;;;;;;;2.50;2.30;;;18.60;98.00;;;;;;5035542;28;20282;-74
2023/07/18 05:57:24;;;;;;;3.20;2.70;;;18.80;97.40;;;;;;5028794;28;20471;-73
2023/07/18 05:59:49;;;;;;;4.53;2.30;;;19.10;97.20;;;;;;5029439;28;20204;-73
2023/07/18 06:02:16;;;;;;;4.57;2.80;;;19.10;97.00;;;;;;5033447;28;20181;-74
2023/07/18 06:04:42;;;;;;;3.28;2.78;;;19.20;97.00;;;;;;5050200;28;20811;-73
2023/07/18 06:07:08;;;;;;;5.20;2.80;;;19.20;96.50;;;;;;5048155;28;20277;-74
2023/07/18 06:09:33;;;;;;;5.40;2.50;;;19.30;96.50;;;;;;5049695;28;20177;-74
2023/07/18 06:11:59;;;;;;;6.73;4.10;;;19.40;96.10;;;;;;5051077;28;20178;-73
2023/07/18 06:14:26;;;;;;;6.73;3.73;;;19.60;96.50;;;;;;5049528;28;20259;-72
2023/07/18 06:16:52;;;;;;;5.72;3.63;;;19.70;97.00;;;;;;5051200;28;20446;-73
2023/07/18 06:19:17;;;;;;;5.33;3.47;;;19.80;96.70;;;;;;5031578;28;20568;-73
2023/07/18 06:21:43;;;;;;;7.03;3.70;;;19.90;96.70;;;;;;5045522;28;20268;-76
2023/07/18 06:24:09;;;;;;;5.32;3.65;;;20.00;96.70;;;;;;5048672;28;20201;-74
2023/07/18 06:26:35;;;;;;;5.03;3.77;;;20.20;96.60;;;;;;5049092;28;20203;-74
2023/07/18 06:29:01;;;;;;;6.75;4.15;;;20.30;96.10;;;;;;5049877;28;20185;-74
2023/07/18 06:31:26;;;;;;;6.63;4.70;;;20.40;95.90;;;;;;5047923;28;20196;-74
2023/07/18 06:33:52;;;;;;;6.77;4.30;;;20.50;95.70;;;;;;5027612;28;20308;-74
2023/07/18 06:36:17;;;;;;;15.70;5.57;;;20.30;96.10;;;;;;5028934;28;20185;-74
2023/07/18 06:38:43;;;;;;;5.80;4.00;;;20.50;96.40;;;;;;5021277;28;20213;-72
2023/07/18 06:41:10;;;;;;;6.90;4.47;;;20.60;95.60;;;;;;5048903;28;20184;-72
2023/07/18 06:43:36;;;;;;;6.65;4.00;;;20.70;95.30;;;;;;5045305;28;20213;-72
2023/07/18 06:46:01;;;;;;;5.37;3.63;;;20.40;95.00;;;;;;5050398;28;20547;-74
2023/07/18 06:48:27;;;;;;;4.43;3.77;;;20.80;94.60;;;;;;5025972;28;20182;-73
2023/07/18 06:50:56;;;;;;;3.97;3.57;;;20.80;94.50;;;;;;5025806;28;20296;-73
2023/07/18 06:53:22;;;;;;;5.70;3.55;;;20.80;94.50;;;;;;5028131;28;20705;-72
2023/07/18 06:55:49;;;;;;;7.33;3.53;;;21.30;94.00;;;;;;5049922;28;20197;-73
2023/07/18 06:58:18;;;;;;;5.07;3.33;;;21.90;93.30;;;;;;5048278;28;20228;-75
2023/07/18 07:00:45;;;;;;;4.87;3.87;;;22.30;92.30;;;;;;5046736;28;20440;-73
2023/07/18 07:03:11;;;;;;;3.93;3.27;;;21.80;91.10;;;;;;5047496;28;20467;-73
2023/07/18 07:05:41;;;;;;;5.10;3.40;;;22.50;91.20;;;;;;5055322;28;20490;-72
2023/07/18 07:08:09;;;;;;;4.80;3.63;;;22.70;91.10;;;;;;5050608;28;20712;-72
2023/07/18 07:10:40;;;;;;;6.23;3.40;;;22.60;90.20;;;;;;5052941;28;20446;-74
2023/07/18 07:13:06;;;;;;;5.03;3.67;;;22.70;90.70;;;;;;5051872;28;20849;-73
2023/07/18 07:15:32;;;;;;;5.40;4.00;;;23.40;89.40;;;;;;5053993;28;20717;-73
2023/07/18 07:17:58;;;;;;;3.43;3.13;;;25.20;84.40;;;;;;5049859;28;20513;-73
2023/07/18 07:20:25;;;;;;;7.80;4.40;;;27.30;77.90;;;;;;5051256;28;20533;-73
2023/07/18 07:22:52;;;;;;;3.13;2.80;;;28.50;68.70;;;;;;5049165;28;20439;-74
2023/07/18 07:25:19;;;;;;;3.90;3.40;;;31.30;56.60;;;;;;5052984;28;20434;-76
2023/07/18 07:27:46;;;;;;;3.40;3.10;;;32.80;49.80;;;;;;5054565;28;20454;-76
2023/07/18 07:30:16;;;;;;;4.90;2.60;;;33.20;50.20;;;;;;5049428;28;20897;-74
2023/07/18 07:32:47;;;;;;;3.40;3.10;;;35.50;44.90;;;;;;5034709;28;20535;-74
2023/07/18 07:35:14;;;;;;;3.17;2.87;;;36.10;43.20;;;;;;5050036;28;20600;-76
2023/07/18 07:37:40;;;;;;;4.10;2.67;;;37.90;41.80;;;;;;5050693;28;20924;-76
2023/07/18 07:40:09;;;;;;;2.37;2.17;;;39.20;37.90;;;;;;5050129;28;20527;-75
2023/07/18 07:42:35;;;;;;;4.10;2.37;;;40.20;34.80;;;;;;5029129;28;20816;-76
2023/07/18 07:45:00;;;;;;;3.37;2.67;;;39.80;33.30;;;;;;5028069;28;20467;-75
2023/07/18 07:47:26;;;;;;;3.40;3.10;;;41.00;32.30;;;;;;5031173;28;20192;-75
2023/07/18 07:49:52;;;;;;;4.00;3.60;;;40.40;32.80;;;;;;5037525;28;20181;-76
2023/07/18 07:52:17;;;;;;;6.53;4.40;;;38.80;33.10;;;;;;5034290;28;20286;-74
2023/07/18 07:54:44;;;;;;;2.80;2.30;;;39.20;33.80;;;;;;5055687;28;20194;-74
2023/07/18 07:57:10;;;;;;;4.20;2.40;;;39.80;31.80;;;;;;5052184;28;20224;-74
2023/07/18 07:59:36;;;;;;;5.00;2.67;;;40.30;31.20;;;;;;5048648;28;21057;-74
2023/07/18 08:02:03;;;;;;;4.90;4.33;;;39.30;31.80;;;;;;5054462;28;20591;-74
2023/07/18 08:04:28;;;;;;;3.33;3.03;;;39.00;33.10;;;;;;5033096;28;20463;-74
2023/07/18 08:06:55;;;;;;;5.10;3.20;;;40.00;32.30;;;;;;5052526;28;20509;-74
2023/07/18 08:09:22;;;;;;;6.80;3.20;;;40.90;31.60;;;;;;5033886;28;20192;-77
2023/07/18 08:11:48;;;;;;;3.83;3.10;;;42.40;30.20;;;;;;5031399;28;20546;-77
2023/07/18 08:14:14;;;;;;;3.23;2.70;;;43.30;29.20;;;;;;5043972;28;20514;-74
2023/07/18 08:16:40;;;;;;;2.80;2.47;;;40.50;29.50;;;;;;5052780;28;20439;-75
2023/07/18 08:19:07;;;;;;;3.10;2.40;;;40.90;29.40;;;;;;5051269;28;20483;-75
2023/07/18 08:21:33;;;;;;;3.67;2.50;;;41.90;28.20;;;;;;5030863;28;20522;-74
2023/07/18 08:23:59;;;;;;;4.07;2.37;;;40.50;28.20;;;;;;5048401;28;20549;-73
2023/07/18 08:26:25;;;;;;;2.60;2.23;;;39.90;28.70;;;;;;5051023;28;20463;-75
2023/07/18 08:28:51;;;;;;;2.73;1.93;;;39.80;29.10;;;;;;5029012;28;20823;-76
2023/07/18 08:31:16;;;;;;;2.80;2.03;;;41.20;28.70;;;;;;5051853;28;20212;-75
2023/07/18 08:33:42;;;;;;;3.33;2.87;;;40.90;28.60;;;;;;5049246;28;20205;-75
2023/07/18 08:36:08;;;;;;;2.40;2.20;;;40.80;27.80;;;;;;5050539;28;20181;-75
2023/07/18 08:38:33;;;;;;;2.20;2.00;;;41.50;28.40;;;;;;5032734;28;20206;-75
2023/07/18 08:40:59;;;;;;;7.47;2.80;;;42.40;27.40;;;;;;5049466;28;20184;-75
2023/07/18 08:43:26;;;;;;;2.60;2.30;;;42.00;27.40;;;;;;5048271;28;20206;-74
2023/07/18 08:45:52;;;;;;;2.93;2.30;;;42.60;26.90;;;;;;5052286;28;20471;-74
2023/07/18 08:48:18;;;;;;;3.50;1.97;;;42.30;27.10;;;;;;5052097;28;20478;-74
2023/07/18 08:50:44;;;;;;;2.00;1.90;;;41.20;27.60;;;;;;5028321;28;20464;-75
2023/07/18 08:53:10;;;;;;;2.40;2.20;;;41.60;27.60;;;;;;5033671;28;20283;-75
2023/07/18 08:55:36;;;;;;;2.40;2.20;;;42.70;26.80;;;;;;5046534;28;20542;-75
2023/07/18 08:58:02;;;;;;;3.43;3.00;;;43.20;26.70;;;;;;5030043;28;20308;-75
2023/07/18 09:00:28;;;;;;;3.80;2.90;;;42.90;26.30;;;;;;5050927;28;20440;-75
2023/07/18 09:02:54;;;;;;;2.90;2.53;;;42.70;26.80;;;;;;5029990;28;20439;-75
2023/07/18 09:05:35;;;;;;;3.67;2.40;;;42.30;26.70;;;;;;5031148;28;20670;-74
2023/07/18 09:08:02;;;;;;;3.00;2.70;;;41.60;26.90;;;;;;5031156;28;20439;-74
2023/07/18 09:10:29;;;;;;;3.00;2.80;;;41.20;27.70;;;;;;5042154;28;20970;-74
2023/07/18 09:12:59;;;;;;;4.27;2.60;;;41.80;27.70;;;;;;5047375;28;20486;-73
2023/07/18 09:15:25;;;;;;;3.87;2.40;;;41.60;27.20;;;;;;5050437;28;20730;-74
2023/07/18 09:17:55;;;;;;;3.87;2.40;;;42.20;27.30;;;;;;5030838;28;20472;-75
2023/07/18 09:20:22;;;;;;;5.93;2.80;;;42.10;27.20;;;;;;5043407;28;20208;-73
2023/07/18 09:22:48;;;;;;;4.60;4.20;;;42.20;27.70;;;;;;5030341;28;20436;-74
2023/07/18 09:25:15;;;;;;;4.27;3.00;;;42.10;27.40;;;;;;5050508;28;20462;-73
2023/07/18 09:27:41;;;;;;;3.20;2.73;;;41.80;27.40;;;;;;5041337;28;20273;-74
2023/07/18 09:30:07;;;;;;;6.07;3.00;;;42.30;27.40;;;;;;5046232;28;20631;-74
2023/07/18 09:32:33;;;;;;;2.97;2.77;;;41.00;27.60;;;;;;5023092;28;20190;-73
2023/07/18 09:35:00;;;;;;;3.10;2.80;;;40.50;28.00;;;;;;5029203;28;20542;-76
2023/07/18 09:37:27;;;;;;;5.13;4.73;;;41.10;28.10;;;;;;5045453;28;20439;-74
2023/07/18 09:39:54;;;;;;;4.83;2.80;;;41.80;27.50;;;;;;5023753;28;20479;-74
2023/07/18 09:42:21;;;;;;;3.70;3.07;;;41.70;27.30;;;;;;5029049;28;20447;-76
2023/07/18 09:44:49;;;;;;;3.63;2.60;;;42.30;27.40;;;;;;5045322;28;20467;-74
2023/07/18 09:47:16;;;;;;;3.50;2.70;;;41.60;27.60;;;;;;5040411;28;20936;-75
2023/07/18 09:49:46;;;;;;;4.83;3.07;;;41.70;27.50;;;;;;5030439;28;20529;-76
2023/07/18 09:52:12;;;;;;;3.40;3.07;;;41.20;27.00;;;;;;5030886;28;20531;-74
2023/07/18 09:54:39;;;;;;;2.90;2.70;;;39.80;28.60;;;;;;5027474;28;20539;-73
2023/07/18 09:57:09;;;;;;;4.33;2.90;;;39.80;29.10;;;;;;5029752;28;20976;-75
2023/07/18 09:59:39;;;;;;;3.10;2.90;;;39.50;28.70;;;;;;5028463;28;20468;-74
2023/07/18 10:02:08;;;;;;;4.33;3.43;;;38.00;30.20;;;;;;5030926;28;21149;-74
2023/07/18 10:04:34;;;;;;;3.13;2.83;;;37.00;30.30;;;;;;5048438;28;20456;-74
2023/07/18 10:07:01;;;;;;;2.90;2.70;;;37.00;31.40;;;;;;5047408;28;20439;-74
2023/07/18 10:09:27;;;;;;;3.70;2.70;;;35.90;32.90;;;;;;5048851;28;20668;-74
2023/07/18 10:12:00;;;;;;;2.63;2.43;;;35.10;34.20;;;;;;5029962;28;20961;-72
2023/07/18 10:14:49;;;;;;;7.93;2.77;;;34.20;34.70;;;;;;5044289;28;20474;-72
2023/07/18 10:17:38;;;;;;;6.33;3.50;;;32.90;36.90;;;;;;5042663;28;20451;-73
2023/07/18 10:20:17;;;;;;;3.30;3.00;;;32.00;38.40;;;;;;5043167;28;20889;-74
2023/07/18 10:22:57;;;;;;;4.90;3.30;;;31.50;39.90;;;;;;5046530;28;20449;-74
2023/07/18 10:25:29;;;;;;;3.53;2.73;;;31.10;41.10;;;;;;5048833;28;20527;-73
2023/07/18 10:27:56;;;;;;;5.47;3.70;;;30.70;42.00;;;;;;5024664;28;20825;-74
2023/07/18 10:30:22;;;;;;;5.00;4.37;;;30.30;42.80;;;;;;5043153;28;20503;-73
2023/07/18 10:32:56;;;;;;;3.20;2.90;;;29.90;44.00;;;;;;5048572;28;20449;-73
2023/07/18 10:35:27;;;;;;;4.40;3.10;;;29.20;44.80;;;;;;5025742;28;20436;-73
2023/07/18 10:37:58;;;;;;;3.70;3.30;;;28.70;46.20;;;;;;5024841;28;20523;-72
2023/07/18 10:40:39;;;;;;;3.17;2.87;;;28.30;47.10;;;;;;5027179;28;20453;-73
2023/07/18 10:43:16;;;;;;;4.40;3.13;;;27.80;48.30;;;;;;5026932;28;20436;-73
2023/07/18 10:45:42;;;;;;;3.37;2.80;;;27.60;48.90;;;;;;5048030;28;20530;-73
2023/07/18 10:48:16;;;;;;;4.20;3.10;;;27.80;49.00;;;;;;5045973;28;20454;-73
2023/07/18 10:50:44;;;;;;;4.10;2.80;;;28.20;48.80;;;;;;5044978;28;20864;-73
2023/07/18 10:53:20;;;;;;;6.53;3.23;;;28.60;48.10;;;;;;5044248;28;20630;-73
2023/07/18 10:55:46;;;;;;;3.00;2.53;;;28.80;47.40;;;;;;5026961;28;20439;-75
2023/07/18 10:58:19;;;;;;;5.90;3.17;;;29.10;47.50;;;;;;5026577;28;20462;-73
2023/07/18 11:00:45;;;;;;;4.93;2.50;;;29.50;46.30;;;;;;5042781;28;20447;-73
2023/07/18 11:03:30;;;;;;;3.53;3.23;;;29.70;45.80;;;;;;5050523;28;21938;-75
2023/07/18 11:05:55;;;;;;;4.27;3.60;;;29.70;45.60;;;;;;5043565;28;20434;-74
2023/07/18 11:08:28;;;;;;;4.40;4.00;;;29.50;45.60;;;;;;5024130;28;20725;-73
2023/07/18 11:10:56;;;;;;;4.53;3.17;;;29.50;46.20;;;;;;5043909;28;20197;-73
2023/07/18 11:13:27;;;;;;;3.53;3.00;;;29.50;45.90;;;;;;5028516;28;20724;-73
2023/07/18 11:15:57;;;;;;;3.03;2.73;;;29.30;46.50;;;;;;5050442;28;20438;-74
2023/07/18 11:18:22;;;;;;;5.30;4.60;;;29.10;47.10;;;;;;5047707;28;20798;-74
2023/07/18 11:20:51;;;;;;;3.50;3.20;;;28.90;47.70;;;;;;5047363;28;20449;-73
2023/07/18 11:23:17;;;;;;;4.83;3.07;;;28.60;47.80;;;;;;5052916;28;20328;-74
2023/07/18 11:25:43;;;;;;;8.13;3.30;;;28.50;48.50;;;;;;5029195;28;20537;-75
2023/07/18 11:28:09;;;;;;;3.40;3.00;;;28.20;48.80;;;;;;5047686;28;20197;-74
2023/07/18 11:30:35;;;;;;;4.97;3.60;;;28.00;49.70;;;;;;5046932;28;20652;-74
2023/07/18 11:33:11;;;;;;;4.93;3.43;;;28.00;50.30;;;;;;5050046;28;20965;-72
2023/07/18 11:35:37;;;;;;;4.00;3.23;;;28.00;51.30;;;;;;5024746;28;20564;-73
2023/07/18 11:38:02;;;;;;;5.10;3.20;;;27.90;51.10;;;;;;5046418;28;20467;-73
2023/07/18 11:40:31;;;;;;;3.50;2.90;;;27.80;51.20;;;;;;5049688;28;20189;-73
2023/07/18 11:42:57;;;;;;;3.33;2.90;;;27.70;51.60;;;;;;5047764;28;20182;-72
2023/07/18 11:45:28;;;;;;;2.77;2.57;;;27.50;52.10;;;;;;5030090;28;20732;-74
2023/07/18 11:47:56;;;;;;;3.90;3.20;;;27.50;53.20;;;;;;5031352;28;20526;-72
2023/07/18 11:50:25;;;;;;;16.23;5.20;;;27.40;53.50;;;;;;5036786;28;20449;-75
2023/07/18 11:52:52;;;;;;;7.60;3.90;;;27.20;54.50;;;;;;5043652;28;20455;-72
2023/07/18 11:55:19;;;;;;;5.90;3.63;;;27.10;55.80;;;;;;5055547;28;20519;-72
2023/07/18 11:57:45;;;;;;;4.33;3.20;;;27.10;57.70;;;;;;5041419;28;20633;-73
2023/07/18 12:00:12;;;;;;;6.23;3.93;;;27.30;57.00;;;;;;5029015;28;20471;-74
2023/07/18 12:02:38;;;;;;;4.97;3.10;;;27.10;57.50;;;;;;5051203;28;20892;-73
2023/07/18 12:05:06;;;;;;;3.60;2.93;;;27.10;57.80;;;;;;5051136;28;20464;-73
2023/07/18 12:07:35;;;;;;;5.00;3.80;;;27.00;57.70;;;;;;5047982;28;20520;-74
2023/07/18 12:10:01;;;;;;;4.77;3.43;;;27.10;58.10;;;;;;5026509;28;20529;-72
2023/07/18 12:12:27;;;;;;;3.60;3.30;;;27.00;58.30;;;;;;5031249;28;20558;-74
2023/07/18 12:14:53;;;;;;;3.83;3.43;;;26.90;58.90;;;;;;5029727;28;20485;-73
2023/07/18 12:17:19;;;;;;;7.10;3.47;;;26.80;59.10;;;;;;5042910;28;20194;-73
2023/07/18 12:19:45;;;;;;;3.43;3.00;;;27.00;59.20;;;;;;5031617;28;20216;-74
2023/07/18 12:22:11;;;;;;;5.20;3.60;;;27.10;59.10;;;;;;5048141;28;20448;-73
2023/07/18 12:24:37;;;;;;;7.20;3.97;;;27.30;58.90;;;;;;5049480;28;20472;-73
2023/07/18 12:27:06;;;;;;;3.90;3.23;;;27.50;58.10;;;;;;5050183;28;20552;-73
2023/07/18 12:29:32;;;;;;;4.40;3.33;;;27.50;57.80;;;;;;5045903;28;20486;-73
2023/07/18 12:31:57;;;;;;;10.57;4.67;;;27.80;58.10;;;;;;5029380;28;20448;-74
2023/07/18 12:34:23;;;;;;;4.63;4.17;;;28.00;57.70;;;;;;5046241;28;20673;-74
2023/07/18 12:36:49;;;;;;;5.97;3.73;;;28.30;57.20;;;;;;5028936;28;20195;-73
2023/07/18 12:39:15;;;;;;;3.37;3.00;;;28.40;57.10;;;;;;5052014;28;20269;-74
2023/07/18 12:41:41;;;;;;;4.33;3.87;;;28.60;55.70;;;;;;5048566;28;20175;-74
2023/07/18 12:44:07;;;;;;;4.37;3.20;;;28.60;53.70;;;;;;5048846;28;20514;-74